createdAt,value
2023-01-03T00:02:01.697Z,12.65
2023-01-03T00:04:29.805Z,12.65
2023-01-03T00:06:57.784Z,14.80
2023-01-03T00:09:25.851Z,11.63
2023-01-03T00:12:13.545Z,11.18
2023-01-03T00:14:43.616Z,10.88
2023-01-03T00:17:13.211Z,9.40
2023-01-03T00:19:43.314Z,10.52
2023-01-03T00:22:12.918Z,10.10
2023-01-03T00:24:41.010Z,6.45
2023-01-03T00:27:10.654Z,8.35
2023-01-03T00:29:39.115Z,4.88
2023-01-03T00:32:07.638Z,14.68
2023-01-03T00:34:36.490Z,4.85
2023-01-03T00:37:05.128Z,8.07
2023-01-03T00:39:34.014Z,9.88
2023-01-03T00:42:01.851Z,10.68
2023-01-03T00:44:31.176Z,9.38
2023-01-03T00:46:59.331Z,7.97
2023-01-03T00:49:27.713Z,12.82
2023-01-03T00:51:55.652Z,5.18
2023-01-03T00:54:24.165Z,5.47
2023-01-03T00:56:53.032Z,8.63
2023-01-03T00:59:22.301Z,10.38
2023-01-03T01:01:53.466Z,5.90
2023-01-03T01:04:24.759Z,5.65
2023-01-03T01:06:55.621Z,12.43
2023-01-03T01:09:29.980Z,9.35
2023-01-03T01:11:58.076Z,10.38
2023-01-03T01:14:29.331Z,9.13
2023-01-03T01:17:00.258Z,12.15
2023-01-03T01:19:29.856Z,8.65
2023-01-03T01:21:58.036Z,4.88
2023-01-03T01:24:26.154Z,7.55
2023-01-03T01:26:54.065Z,8.70
2023-01-03T01:29:27.097Z,9.15
2023-01-03T01:31:58.241Z,12.57
2023-01-03T01:34:26.188Z,12.23
2023-01-03T01:36:54.218Z,12.35
2023-01-03T01:39:24.384Z,8.90
2023-01-03T01:42:19.073Z,5.88
2023-01-03T01:44:53.084Z,9.70
2023-01-03T01:47:34.165Z,8.60
2023-01-03T01:50:13.724Z,6.38
2023-01-03T01:52:45.587Z,8.52
2023-01-03T01:55:17.251Z,7.25
2023-01-03T01:57:45.833Z,13.27
2023-01-03T02:00:14.949Z,9.15
2023-01-03T02:02:49.415Z,11.05
2023-01-03T02:05:19.572Z,14.55
2023-01-03T02:07:50.168Z,12.73
2023-01-03T02:10:18.950Z,8.18
2023-01-03T02:13:06.765Z,13.02
2023-01-03T02:15:55.331Z,7.20
2023-01-03T02:18:37.824Z,7.30
2023-01-03T02:21:32.592Z,15.20
2023-01-03T02:24:43.465Z,9.07
2023-01-03T02:27:31.292Z,15.30
2023-01-03T02:30:32.450Z,13.15
2023-01-03T02:33:11.924Z,18.27
2023-01-03T02:35:47.203Z,8.45
2023-01-03T02:38:24.890Z,9.63
2023-01-03T02:41:00.495Z,14.23
2023-01-03T02:43:33.579Z,6.97
2023-01-03T02:46:09.123Z,10.70
2023-01-03T02:48:44.759Z,14.98
2023-01-03T02:51:18.459Z,13.35
2023-01-03T02:53:50.164Z,13.70
2023-01-03T02:56:22.409Z,7.93
2023-01-03T02:58:57.829Z,14.25
2023-01-03T03:01:29.096Z,10.43
2023-01-03T03:03:58.835Z,13.65
2023-01-03T03:06:34.617Z,9.93
2023-01-03T03:09:02.742Z,6.90
2023-01-03T03:11:52.821Z,6.13
2023-01-03T03:14:25.983Z,8.35
2023-01-03T03:17:00.934Z,15.68
2023-01-03T03:19:48.756Z,12.00
2023-01-03T03:22:43.200Z,8.90
2023-01-03T03:25:16.215Z,10.52
2023-01-03T03:28:06.447Z,7.95
2023-01-03T03:30:37.901Z,8.32
2023-01-03T03:33:08.650Z,7.25
2023-01-03T03:35:45.109Z,10.90
2023-01-03T03:38:16.456Z,8.48
2023-01-03T03:41:17.403Z,9.07
2023-01-03T03:44:24.318Z,10.13
2023-01-03T03:47:04.714Z,19.92
2023-01-03T03:49:39.208Z,9.48
2023-01-03T03:52:10.719Z,8.65
2023-01-03T03:54:41.724Z,8.73
2023-01-03T03:57:16.355Z,7.55
2023-01-03T03:59:50.554Z,8.20
2023-01-03T04:02:20.062Z,3.92
2023-01-03T04:04:55.063Z,5.90
2023-01-03T04:07:22.983Z,10.68
2023-01-03T04:09:51.245Z,11.63
2023-01-03T04:12:19.119Z,10.60
2023-01-03T04:14:47.043Z,9.30
2023-01-03T04:17:14.931Z,6.82
2023-01-03T04:19:42.747Z,9.43
2023-01-03T04:22:12.008Z,10.32
2023-01-03T04:24:40.104Z,8.25
2023-01-03T04:27:08.012Z,9.55
2023-01-03T04:29:39.441Z,10.60
2023-01-03T04:32:08.021Z,9.63
2023-01-03T04:34:36.021Z,8.05
2023-01-03T04:37:03.962Z,10.93
2023-01-03T04:39:33.227Z,9.45
2023-01-03T04:42:01.565Z,8.55
2023-01-03T04:44:28.767Z,10.55
2023-01-03T04:46:56.674Z,5.88
2023-01-03T04:49:24.594Z,12.55
2023-01-03T04:51:52.496Z,12.25
2023-01-03T04:54:20.341Z,15.45
2023-01-03T04:56:49.602Z,9.07
2023-01-03T04:59:17.482Z,13.10
2023-01-03T05:01:52.152Z,15.05
2023-01-03T05:04:20.541Z,16.05
2023-01-03T05:06:48.458Z,17.02
2023-01-03T05:09:16.377Z,16.00
2023-01-03T05:11:44.366Z,18.63
2023-01-03T05:14:14.658Z,14.00
2023-01-03T05:16:42.932Z,14.75
2023-01-03T05:19:11.096Z,16.40
2023-01-03T05:21:57.722Z,18.08
2023-01-03T05:24:43.269Z,14.57
2023-01-03T05:27:11.170Z,23.55
2023-01-03T05:29:40.620Z,21.13
2023-01-03T05:32:08.583Z,20.90
2023-01-03T05:34:36.494Z,21.95
2023-01-03T05:37:04.378Z,17.98
2023-01-03T05:39:32.272Z,20.52
2023-01-03T05:42:00.912Z,17.42
2023-01-03T05:44:29.208Z,19.38
2023-01-03T05:46:58.647Z,16.65
2023-01-03T05:49:26.940Z,19.50
2023-01-03T05:51:54.970Z,18.40
2023-01-03T05:54:22.828Z,16.63
2023-01-03T05:56:51.386Z,19.95
2023-01-03T05:59:20.995Z,21.42
2023-01-03T06:01:48.985Z,22.95
2023-01-03T06:04:18.397Z,18.63
2023-01-03T06:06:46.437Z,20.00
2023-01-03T06:09:14.356Z,20.67
2023-01-03T06:11:42.344Z,24.70
2023-01-03T06:14:10.738Z,20.67
2023-01-03T06:16:56.576Z,26.02
2023-01-03T06:19:26.657Z,19.55
2023-01-03T06:21:54.717Z,19.75
2023-01-03T06:24:22.607Z,23.65
2023-01-03T06:26:50.477Z,29.42
2023-01-03T06:29:18.828Z,22.90
2023-01-03T06:31:46.700Z,24.13
2023-01-03T06:34:15.993Z,25.67
2023-01-03T06:36:45.269Z,22.33
2023-01-03T06:39:13.301Z,25.60
2023-01-03T06:41:41.302Z,25.35
2023-01-03T06:44:11.165Z,28.00
2023-01-03T06:46:56.563Z,28.35
2023-01-03T06:49:41.960Z,27.08
2023-01-03T06:52:32.694Z,25.88
2023-01-03T06:55:00.607Z,25.27
2023-01-03T06:57:28.639Z,27.83
2023-01-03T06:59:56.690Z,28.48
2023-01-03T07:02:24.873Z,30.45
2023-01-03T07:04:53.144Z,33.55
2023-01-03T07:07:22.389Z,25.67
2023-01-03T07:09:50.205Z,26.67
2023-01-03T07:12:37.371Z,24.70
2023-01-03T07:15:06.550Z,30.17
2023-01-03T07:17:34.579Z,30.80
2023-01-03T07:20:02.667Z,31.10
2023-01-03T07:22:32.691Z,30.25
2023-01-03T07:25:00.614Z,28.77
2023-01-03T07:27:28.558Z,29.83
2023-01-03T07:29:56.472Z,33.55
2023-01-03T07:32:24.384Z,32.20
2023-01-03T07:34:52.318Z,28.75
2023-01-03T07:37:20.210Z,28.85
2023-01-03T07:39:49.561Z,32.20
2023-01-03T07:42:35.116Z,34.30
2023-01-03T07:45:03.265Z,33.10
2023-01-03T07:47:31.838Z,33.60
2023-01-03T07:49:59.836Z,36.95
2023-01-03T07:52:28.832Z,29.90
2023-01-03T07:54:58.266Z,35.50
2023-01-03T07:57:26.232Z,34.45
2023-01-03T07:59:54.161Z,33.28
2023-01-03T08:02:22.549Z,34.10
2023-01-03T08:04:50.672Z,32.17
2023-01-03T08:07:18.774Z,33.35
2023-01-03T08:10:04.370Z,38.83
2023-01-03T08:12:51.617Z,29.83
2023-01-03T08:15:19.543Z,29.58
2023-01-03T08:17:47.477Z,32.80
2023-01-03T08:20:15.704Z,33.30
2023-01-03T08:22:43.761Z,30.80
2023-01-03T08:25:12.136Z,32.55
2023-01-03T08:27:45.373Z,29.80
2023-01-03T08:30:17.817Z,30.92
2023-01-03T08:32:45.916Z,30.23
2023-01-03T08:35:15.994Z,30.80
2023-01-03T08:37:44.815Z,30.20
2023-01-03T08:40:15.464Z,30.55
2023-01-03T08:42:45.758Z,31.98
2023-01-03T08:45:17.011Z,27.20
2023-01-03T08:47:46.817Z,23.70
2023-01-03T08:50:15.744Z,35.88
2023-01-03T08:52:44.127Z,21.80
2023-01-03T08:55:12.068Z,28.27
2023-01-03T08:57:40.955Z,25.08
2023-01-03T09:00:12.221Z,26.40
2023-01-03T09:02:40.502Z,22.48
2023-01-03T09:05:09.886Z,24.73
2023-01-03T09:07:38.028Z,29.48
2023-01-03T09:10:07.021Z,26.92
2023-01-03T09:12:35.069Z,23.63
2023-01-03T09:15:03.210Z,28.02
2023-01-03T09:17:32.667Z,29.27
2023-01-03T09:20:00.636Z,26.70
2023-01-03T09:22:28.619Z,35.08
2023-01-03T09:24:56.690Z,24.17
2023-01-03T09:27:24.616Z,32.10
2023-01-03T09:29:53.224Z,23.85
2023-01-03T09:32:21.221Z,30.23
2023-01-03T09:34:50.569Z,30.23
2023-01-03T09:37:18.752Z,27.65
2023-01-03T09:39:46.656Z,22.63
2023-01-03T09:42:37.584Z,18.77
2023-01-03T09:45:07.834Z,20.38
2023-01-03T09:47:39.292Z,26.30
2023-01-03T09:50:31.793Z,24.77
2023-01-03T09:53:25.390Z,24.65
2023-01-03T09:56:20.139Z,29.25
2023-01-03T09:59:10.884Z,31.38
2023-01-03T10:02:09.170Z,29.63
2023-01-03T10:04:52.659Z,28.08
2023-01-03T10:07:38.271Z,24.42
2023-01-03T10:10:16.615Z,27.02
2023-01-03T10:12:54.043Z,29.55
2023-01-03T10:15:31.083Z,21.73
2023-01-03T10:18:13.285Z,25.85
2023-01-03T10:20:49.541Z,21.25
2023-01-03T10:23:19.827Z,22.40
2023-01-03T10:25:48.492Z,22.70
2023-01-03T10:28:20.104Z,23.80
2023-01-03T10:31:07.753Z,24.45
2023-01-03T10:33:41.120Z,21.52
2023-01-03T10:36:10.010Z,22.63
2023-01-03T10:38:47.982Z,26.70
2023-01-03T10:41:24.146Z,24.88
2023-01-03T10:43:59.014Z,29.13
2023-01-03T10:46:28.190Z,25.30
2023-01-03T10:49:29.279Z,27.40
2023-01-03T10:52:02.102Z,29.67
2023-01-03T10:54:50.002Z,28.77
2023-01-03T10:57:37.424Z,31.75
2023-01-03T11:00:23.056Z,32.85
2023-01-03T11:02:52.044Z,34.33
2023-01-03T11:05:22.933Z,35.63
2023-01-03T11:07:55.609Z,36.53
2023-01-03T11:10:29.473Z,37.10
2023-01-03T11:12:57.732Z,42.05
2023-01-03T11:15:39.134Z,44.03
2023-01-03T11:18:17.739Z,39.05
2023-01-03T11:20:51.719Z,42.78
2023-01-03T11:23:28.185Z,49.72
2023-01-03T11:26:11.113Z,44.83
2023-01-03T11:29:15.121Z,47.37
2023-01-03T11:31:53.510Z,50.08
2023-01-03T11:35:20.048Z,43.92
2023-01-03T11:37:36.367Z,48.33
2023-01-03T11:40:15.411Z,50.25
2023-01-03T11:42:55.519Z,50.80
2023-01-03T11:45:48.320Z,53.72
2023-01-03T11:48:32.755Z,55.10
2023-01-03T11:51:09.698Z,61.20
2023-01-03T11:53:39.673Z,56.08
2023-01-03T11:56:19.608Z,54.33
2023-01-03T11:59:24.450Z,60.60
2023-01-03T12:02:27.304Z,54.05
2023-01-03T12:05:08.400Z,62.95
2023-01-03T12:07:50.818Z,62.95
2023-01-03T12:10:26.413Z,68.78
2023-01-03T12:13:13.687Z,65.10
2023-01-03T12:15:49.193Z,60.25
2023-01-03T12:18:23.872Z,63.83
2023-01-03T12:20:58.768Z,73.65
2023-01-03T12:23:36.483Z,72.07
2023-01-03T12:26:09.124Z,70.47
2023-01-03T12:28:41.031Z,65.63
2023-01-03T12:31:20.420Z,67.43
2023-01-03T12:33:57.057Z,72.47
2023-01-03T12:36:34.004Z,70.97
2023-01-03T12:39:11.284Z,66.32
2023-01-03T12:41:45.645Z,70.57
2023-01-03T12:44:19.582Z,69.90
2023-01-03T12:46:54.102Z,72.43
2023-01-03T12:49:27.726Z,72.20
2023-01-03T12:51:55.681Z,74.72
2023-01-03T12:54:36.270Z,66.30
2023-01-03T12:57:37.348Z,68.57
2023-01-03T13:00:26.604Z,63.90
2023-01-03T13:03:01.101Z,65.13
2023-01-03T13:05:37.714Z,61.03
2023-01-03T13:08:12.934Z,61.55
2023-01-03T13:10:44.689Z,62.13
2023-01-03T13:13:18.067Z,62.38
2023-01-03T13:15:48.495Z,58.17
2023-01-03T13:18:38.563Z,60.20
2023-01-03T13:21:42.717Z,55.13
2023-01-03T13:24:10.845Z,48.15
2023-01-03T13:26:38.967Z,54.20
2023-01-03T13:29:44.084Z,45.67
2023-01-03T13:32:17.783Z,47.78
2023-01-03T13:35:21.341Z,41.65
2023-01-03T13:37:51.424Z,44.28
2023-01-03T13:40:52.142Z,37.22
2023-01-03T13:43:21.047Z,39.30
2023-01-03T13:45:55.242Z,46.22
2023-01-03T13:48:30.304Z,43.28
2023-01-03T13:51:36.573Z,40.17
2023-01-03T13:54:25.712Z,35.03
2023-01-03T13:57:06.932Z,38.88
2023-01-03T13:59:44.753Z,38.00
2023-01-03T14:02:54.618Z,33.78
2023-01-03T14:05:55.645Z,38.22
2023-01-03T14:08:39.240Z,41.67
2023-01-03T14:11:36.097Z,47.03
2023-01-03T14:14:09.912Z,38.33
2023-01-03T14:16:48.465Z,39.03
2023-01-03T14:19:23.056Z,40.83
2023-01-03T14:21:57.098Z,40.08
2023-01-03T14:24:29.725Z,38.63
2023-01-03T14:27:08.932Z,39.77
2023-01-03T14:29:43.956Z,35.60
2023-01-03T14:32:21.772Z,36.28
2023-01-03T14:34:50.493Z,48.47
2023-01-03T14:37:21.183Z,40.20
2023-01-03T14:39:55.232Z,44.03
2023-01-03T14:42:24.233Z,53.50
2023-01-03T14:44:56.393Z,45.95
2023-01-03T14:47:33.009Z,43.20
2023-01-03T14:50:02.342Z,46.20
2023-01-03T14:52:34.086Z,48.60
2023-01-03T14:55:08.606Z,50.67
2023-01-03T14:57:40.451Z,45.30
2023-01-03T15:00:16.410Z,59.03
2023-01-03T15:02:47.317Z,52.92
2023-01-03T15:05:28.864Z,38.55
2023-01-03T15:08:08.981Z,47.83
2023-01-03T15:10:46.298Z,44.85
2023-01-03T15:13:21.648Z,42.40
2023-01-03T15:15:56.148Z,45.25
2023-01-03T15:18:26.049Z,48.15
2023-01-03T15:20:56.219Z,42.25
2023-01-03T15:23:40.105Z,43.70
2023-01-03T15:28:54.001Z,45.30
2023-01-03T15:31:33.571Z,42.65
2023-01-03T15:34:03.989Z,40.63
2023-01-03T15:36:34.054Z,41.97
2023-01-03T15:39:02.359Z,42.85
2023-01-03T15:42:06.433Z,40.28
2023-01-03T15:44:39.730Z,41.72
2023-01-03T15:47:09.838Z,46.13
2023-01-03T15:49:42.710Z,39.13
2023-01-03T15:52:13.691Z,39.40
2023-01-03T15:54:41.884Z,38.58
2023-01-03T15:57:15.704Z,38.35
2023-01-03T15:59:45.378Z,33.60
2023-01-03T16:02:17.580Z,39.88
2023-01-03T16:04:46.762Z,31.85
2023-01-03T16:07:15.156Z,32.67
2023-01-03T16:09:43.287Z,35.20
2023-01-03T16:12:17.263Z,28.45
2023-01-03T16:14:50.232Z,31.27
2023-01-03T16:17:24.673Z,31.52
2023-01-03T16:19:53.621Z,32.50
2023-01-03T16:22:34.322Z,37.13
2023-01-03T16:25:03.587Z,31.67
2023-01-03T16:27:33.005Z,36.80
2023-01-03T16:30:01.061Z,38.33
2023-01-03T16:32:31.294Z,29.67
2023-01-03T16:35:01.578Z,32.28
2023-01-03T16:37:30.609Z,25.88
2023-01-03T16:39:59.272Z,37.88
2023-01-03T16:42:28.676Z,28.48
2023-01-03T16:44:58.123Z,25.25
2023-01-03T16:47:30.628Z,24.20
2023-01-03T16:50:01.871Z,29.55
2023-01-03T16:52:34.537Z,25.98
2023-01-03T16:55:14.750Z,23.93
2023-01-03T16:57:44.489Z,20.80
2023-01-03T17:00:20.426Z,25.33
2023-01-03T17:02:48.968Z,23.77
2023-01-03T17:05:17.802Z,20.63
2023-01-03T17:07:48.354Z,20.00
2023-01-03T17:10:26.894Z,23.02
2023-01-03T17:12:55.693Z,23.55
2023-01-03T17:15:25.559Z,17.80
2023-01-03T17:17:53.627Z,23.85
2023-01-03T17:20:23.547Z,22.27
2023-01-03T17:22:54.118Z,15.63
2023-01-03T17:25:22.848Z,22.48
2023-01-03T17:27:54.214Z,19.73
2023-01-03T17:30:26.259Z,21.90
2023-01-03T17:32:55.182Z,21.15
2023-01-03T17:35:23.336Z,17.83
2023-01-03T17:38:23.938Z,24.33
2023-01-03T17:40:41.549Z,18.23
2023-01-03T17:43:18.341Z,19.45
2023-01-03T17:46:06.511Z,18.83
2023-01-03T17:48:52.381Z,16.63
2023-01-03T17:51:20.995Z,17.27
2023-01-03T17:53:51.224Z,19.15
2023-01-03T17:56:21.093Z,18.27
2023-01-03T17:58:55.883Z,14.65
2023-01-03T18:01:25.793Z,18.75
2023-01-03T18:03:53.907Z,16.85
2023-01-03T18:06:24.899Z,16.52
2023-01-03T18:08:54.067Z,12.63
2023-01-03T18:11:26.056Z,12.98
2023-01-03T18:13:54.146Z,13.13
2023-01-03T18:16:25.643Z,17.48
2023-01-03T18:18:53.570Z,17.95
2023-01-03T18:21:23.959Z,16.02
2023-01-03T18:23:56.306Z,17.20
2023-01-03T18:26:27.656Z,17.83
2023-01-03T18:28:55.793Z,20.10
2023-01-03T18:31:25.280Z,17.05
2023-01-03T18:33:53.317Z,16.08
2023-01-03T18:36:26.769Z,18.38
2023-01-03T18:39:03.653Z,15.95
2023-01-03T18:41:33.695Z,17.40
2023-01-03T18:44:02.569Z,12.45
2023-01-03T18:46:32.164Z,28.17
2023-01-03T18:49:00.379Z,12.40
2023-01-03T18:51:30.250Z,17.38
2023-01-03T18:54:00.667Z,14.07
2023-01-03T18:56:32.455Z,14.68
2023-01-03T18:59:04.032Z,17.60
2023-01-03T19:01:33.650Z,18.85
2023-01-03T19:04:02.025Z,19.20
2023-01-03T19:06:33.920Z,16.90
2023-01-03T19:09:06.043Z,15.82
2023-01-03T19:11:37.167Z,16.60
2023-01-03T19:14:06.147Z,14.57
2023-01-03T19:16:37.490Z,13.07
2023-01-03T19:19:07.480Z,17.38
2023-01-03T19:21:37.882Z,12.55
2023-01-03T19:24:08.925Z,14.35
2023-01-03T19:26:41.097Z,14.73
2023-01-03T19:29:17.658Z,15.68
2023-01-03T19:31:50.024Z,15.05
2023-01-03T19:34:20.747Z,11.90
2023-01-03T19:36:49.055Z,17.40
2023-01-03T19:39:25.082Z,15.23
2023-01-03T19:42:14.441Z,14.75
2023-01-03T19:44:45.204Z,11.48
2023-01-03T19:47:16.729Z,14.52
2023-01-03T19:49:47.144Z,16.73
2023-01-03T19:52:15.764Z,15.55
2023-01-03T19:54:44.459Z,11.48
2023-01-03T19:57:21.387Z,12.80
2023-01-03T19:59:52.449Z,14.63
2023-01-03T20:02:34.640Z,13.25
2023-01-03T20:05:03.841Z,16.50
2023-01-03T20:07:31.826Z,10.88
2023-01-03T20:09:59.802Z,11.95
2023-01-03T20:12:27.925Z,13.38
2023-01-03T20:15:01.382Z,12.63
2023-01-03T20:17:35.709Z,18.42
2023-01-03T20:20:04.091Z,13.60
2023-01-03T20:25:28.412Z,11.52
2023-01-03T20:27:57.361Z,16.38
2023-01-03T20:30:30.080Z,17.67
2023-01-03T20:32:59.690Z,14.75
2023-01-03T20:38:24.638Z,13.73
2023-01-03T20:40:52.883Z,13.55
2023-01-03T20:43:21.002Z,13.07
2023-01-03T20:45:53.203Z,23.27
2023-01-03T20:48:25.936Z,13.32
2023-01-03T20:50:55.102Z,15.20
2023-01-03T20:53:24.972Z,13.63
2023-01-03T20:55:54.012Z,13.32
2023-01-03T20:58:26.068Z,13.35
2023-01-03T21:01:01.900Z,14.30
2023-01-03T21:03:33.869Z,14.82
2023-01-03T21:06:03.372Z,14.85
2023-01-03T21:08:49.129Z,13.35
2023-01-03T21:11:17.015Z,14.95
2023-01-03T21:13:44.946Z,15.90
2023-01-03T21:16:27.430Z,12.27
2023-01-03T21:18:57.310Z,12.40
2023-01-03T21:21:25.494Z,13.90
2023-01-03T21:23:54.228Z,10.50
2023-01-03T21:26:22.302Z,11.23
2023-01-03T21:28:50.168Z,19.08
2023-01-03T21:31:20.038Z,17.60
2023-01-03T21:33:49.139Z,8.95
2023-01-03T21:36:23.605Z,15.98
2023-01-03T21:38:52.118Z,7.50
2023-01-03T21:41:21.964Z,16.20
2023-01-03T21:43:50.189Z,15.40
2023-01-03T21:46:19.307Z,17.40
2023-01-03T21:48:47.937Z,15.48
2023-01-03T21:51:27.438Z,24.83
2023-01-03T21:54:01.307Z,19.58
2023-01-03T21:56:29.199Z,14.85
2023-01-03T21:58:57.263Z,11.98
2023-01-03T22:01:25.889Z,10.32
2023-01-03T22:04:11.193Z,14.05
2023-01-03T22:06:40.427Z,14.00
2023-01-03T22:09:28.463Z,13.10
2023-01-03T22:11:56.384Z,7.63
2023-01-03T22:14:24.321Z,11.80
2023-01-03T22:16:54.118Z,13.68
2023-01-03T22:19:22.770Z,10.30
2023-01-03T22:21:52.015Z,12.45
2023-01-03T22:24:19.863Z,12.43
2023-01-03T22:26:47.743Z,12.70
2023-01-03T22:29:15.621Z,9.20
2023-01-03T22:31:45.735Z,12.85
2023-01-03T22:34:13.729Z,13.05
2023-01-03T22:36:41.667Z,10.73
2023-01-03T22:39:11.094Z,15.10
2023-01-03T22:41:39.081Z,15.13
2023-01-03T22:44:07.034Z,12.35
2023-01-03T22:46:35.059Z,14.57
2023-01-03T22:49:03.188Z,12.02
2023-01-03T22:51:31.172Z,14.20
2023-01-03T22:53:59.036Z,14.90
2023-01-03T22:56:28.213Z,8.20
2023-01-03T22:58:56.209Z,14.60
2023-01-03T23:01:28.006Z,10.65
2023-01-03T23:03:59.901Z,14.52
2023-01-03T23:06:29.899Z,15.55
2023-01-03T23:08:58.547Z,12.32
2023-01-03T23:11:47.411Z,10.95
2023-01-03T23:14:18.333Z,17.70
2023-01-03T23:16:47.153Z,13.52
2023-01-03T23:19:17.016Z,15.15
2023-01-03T23:21:46.048Z,13.25
2023-01-03T23:24:16.126Z,13.93
2023-01-03T23:26:45.822Z,7.90
2023-01-03T23:29:14.402Z,18.88
2023-01-03T23:31:42.767Z,18.85
2023-01-03T23:34:10.698Z,9.50
2023-01-03T23:36:38.634Z,8.80
2023-01-03T23:39:06.573Z,13.63
2023-01-03T23:41:34.536Z,4.68
2023-01-03T23:44:04.044Z,12.43
2023-01-03T23:46:32.240Z,8.07
2023-01-03T23:49:00.384Z,21.45
2023-01-03T23:51:28.908Z,9.98
2023-01-03T23:53:56.924Z,15.25
2023-01-03T23:56:25.965Z,14.30
2023-01-03T23:58:54.023Z,16.27
